Terminal Aerodrome Forecast
Issued by NWS Charleston, WV

Home | Current Version | Previous Version | Text Only | Print | Product List | Glossary On
Versions: 1 2 3 4 5 6 7 8 9 10 11 12 13 14 15 16 17 18 19 20 21 22 23
163
FTUS41 KRLX 280539
TAFEKN
TAF
KEKN 280539Z 2806/2906 VRB03KT P6SM BKN040
     FM280700 VRB03KT 5SM SHRA BR BKN040
     FM281000 18004KT 3SM SHRA BR OVC015
     FM281500 24005KT P6SM VCSH BKN025
     FM282100 28006KT P6SM BKN015
     FM290400 33004KT 3SM BR BKN012=

USA.gov is the U.S. government's official web portal to all federal, state and local government web resources and services.